createdAt,value
2018-04-25T00:02:13.158Z,88.20
2018-04-25T00:04:40.719Z,88.40
2018-04-25T00:07:08.372Z,88.80
2018-04-25T00:09:36.016Z,88.80
2018-04-25T00:12:03.563Z,89.50
2018-04-25T00:14:31.101Z,89.90
2018-04-25T00:16:59.638Z,90.20
2018-04-25T00:19:27.217Z,89.90
2018-04-25T00:21:54.734Z,90.30
2018-04-25T00:24:22.371Z,90.30
2018-04-25T00:26:49.840Z,90.40
2018-04-25T00:29:17.390Z,90.10
2018-04-25T00:31:44.909Z,90.30
2018-04-25T00:34:12.450Z,90.60
2018-04-25T00:36:39.998Z,90.80
2018-04-25T00:39:07.543Z,90.40
2018-04-25T00:41:35.067Z,90.40
2018-04-25T00:44:03.380Z,90.20
2018-04-25T00:46:30.894Z,90.20
2018-04-25T00:48:58.461Z,90.50
2018-04-25T00:51:25.996Z,90.60
2018-04-25T00:53:53.555Z,90.60
2018-04-25T00:56:21.094Z,90.60
2018-04-25T00:58:48.671Z,90.70
2018-04-25T01:01:16.235Z,90.50
2018-04-25T01:03:44.550Z,90.60
2018-04-25T01:06:12.083Z,90.60
2018-04-25T01:08:39.628Z,90.60
2018-04-25T01:11:07.159Z,91.10
2018-04-25T01:13:34.711Z,91.00
2018-04-25T01:16:03.260Z,91.10
2018-04-25T01:18:30.811Z,91.10
2018-04-25T01:20:58.363Z,91.00
2018-04-25T01:23:25.915Z,91.10
2018-04-25T01:26:00.178Z,91.20
2018-04-25T01:28:30.946Z,91.30
2018-04-25T01:31:00.951Z,91.30
2018-04-25T01:33:31.055Z,91.20
2018-04-25T01:36:01.287Z,91.10
2018-04-25T01:38:31.434Z,91.50
2018-04-25T01:40:58.946Z,91.30
2018-04-25T01:43:26.499Z,91.30
2018-04-25T01:46:15.453Z,91.50
2018-04-25T01:49:01.492Z,91.50
2018-04-25T01:51:40.960Z,92.10
2018-04-25T01:54:20.603Z,91.70
2018-04-25T01:57:00.222Z,91.80
2018-04-25T01:59:39.738Z,91.60
2018-04-25T02:02:06.784Z,91.90
2018-04-25T02:04:34.325Z,91.60
2018-04-25T02:07:02.777Z,91.80
2018-04-25T02:09:30.338Z,92.00
2018-04-25T02:11:57.863Z,92.10
2018-04-25T02:14:26.180Z,92.70
2018-04-25T02:16:53.707Z,92.70
2018-04-25T02:19:21.279Z,92.50
2018-04-25T02:21:48.808Z,92.70
2018-04-25T02:24:16.358Z,92.50
2018-04-25T02:26:43.911Z,92.70
2018-04-25T02:29:11.439Z,92.50
2018-04-25T02:31:39.078Z,92.20
2018-04-25T02:34:06.682Z,92.20
2018-04-25T02:36:34.226Z,92.30
2018-04-25T02:39:03.452Z,92.20
2018-04-25T02:41:31.001Z,92.20
2018-04-25T02:43:58.543Z,92.30
2018-04-25T02:46:26.084Z,92.30
2018-04-25T02:48:53.625Z,92.10
2018-04-25T02:51:21.176Z,92.10
2018-04-25T02:53:48.697Z,92.10
2018-04-25T02:56:16.244Z,92.10
2018-04-25T02:58:43.766Z,92.00
2018-04-25T03:01:12.074Z,92.10
2018-04-25T03:03:40.438Z,92.00
2018-04-25T03:06:07.979Z,92.00
2018-04-25T03:08:36.147Z,92.00
2018-04-25T03:11:03.780Z,92.10
2018-04-25T03:13:31.310Z,92.20
2018-04-25T03:15:58.868Z,92.30
2018-04-25T03:18:26.387Z,92.20
2018-04-25T03:20:53.954Z,92.40
2018-04-25T03:23:21.611Z,92.40
2018-04-25T03:25:49.178Z,92.30
2018-04-25T03:28:16.798Z,92.20
2018-04-25T03:30:44.348Z,92.20
2018-04-25T03:33:11.863Z,92.20
2018-04-25T03:35:39.429Z,92.30
2018-04-25T03:38:07.003Z,92.20
2018-04-25T03:40:34.550Z,92.10
2018-04-25T03:43:02.079Z,92.10
2018-04-25T03:45:29.630Z,92.10
2018-04-25T03:47:57.157Z,92.10
2018-04-25T03:50:24.679Z,92.10
2018-04-25T03:52:52.221Z,91.90
2018-04-25T03:55:19.733Z,91.90
2018-04-25T03:57:48.148Z,92.00
2018-04-25T04:00:15.677Z,92.00
2018-04-25T04:02:43.239Z,92.20
2018-04-25T04:05:10.760Z,92.00
2018-04-25T04:07:38.315Z,92.10
2018-04-25T04:10:05.852Z,92.10
2018-04-25T04:12:33.510Z,92.10
2018-04-25T04:15:01.036Z,92.00
2018-04-25T04:17:28.575Z,92.10
2018-04-25T04:19:56.100Z,92.20
2018-04-25T04:22:23.657Z,92.20
2018-04-25T04:24:51.262Z,92.10
2018-04-25T04:27:18.797Z,92.30
2018-04-25T04:29:46.384Z,92.60
2018-04-25T04:32:15.641Z,92.30
2018-04-25T04:34:43.166Z,92.30
2018-04-25T04:37:10.704Z,92.20
2018-04-25T04:39:38.242Z,92.30
2018-04-25T04:42:05.791Z,92.20
2018-04-25T04:44:33.310Z,92.10
2018-04-25T04:47:00.880Z,91.80
2018-04-25T04:49:28.468Z,91.70
2018-04-25T04:51:56.046Z,91.30
2018-04-25T04:54:23.595Z,91.40
2018-04-25T04:56:51.157Z,91.30
2018-04-25T04:59:18.725Z,91.20
2018-04-25T05:01:46.302Z,91.00
2018-04-25T05:04:13.912Z,90.90
2018-04-25T05:06:42.983Z,90.90
2018-04-25T05:09:10.497Z,90.60
2018-04-25T05:11:38.038Z,90.80
2018-04-25T05:14:06.632Z,90.70
2018-04-25T05:16:35.811Z,90.50
2018-04-25T05:19:03.342Z,90.50
2018-04-25T05:21:30.899Z,90.40
2018-04-25T05:23:58.426Z,90.00
2018-04-25T05:26:26.098Z,90.10
2018-04-25T05:28:53.682Z,90.00
2018-04-25T05:31:21.976Z,89.50
2018-04-25T05:33:49.546Z,89.50
2018-04-25T05:36:17.111Z,89.40
2018-04-25T05:38:44.832Z,89.10
2018-04-25T05:41:12.288Z,89.50
2018-04-25T05:43:39.885Z,89.60
2018-04-25T05:46:07.849Z,89.90
2018-04-25T05:48:35.739Z,90.20
2018-04-25T05:51:03.266Z,90.20
2018-04-25T05:53:30.919Z,90.30
2018-04-25T05:55:58.478Z,90.40
2018-04-25T05:58:26.022Z,90.50
2018-04-25T06:00:53.543Z,90.60
2018-04-25T06:03:21.115Z,90.50
2018-04-25T06:05:48.746Z,90.40
2018-04-25T06:08:17.079Z,90.30
2018-04-25T06:10:44.604Z,90.30
2018-04-25T06:13:12.919Z,90.20
2018-04-25T06:15:40.564Z,90.20
2018-04-25T06:18:08.113Z,90.00
2018-04-25T06:20:35.629Z,89.50
2018-04-25T06:23:03.197Z,89.10
2018-04-25T06:25:30.715Z,88.80
2018-04-25T06:27:58.250Z,88.50
2018-04-25T06:30:25.770Z,88.20
2018-04-25T06:32:53.321Z,87.90
2018-04-25T06:35:21.741Z,87.90
2018-04-25T06:37:49.295Z,87.90
2018-04-25T06:40:16.823Z,86.90
2018-04-25T06:42:44.366Z,86.80
2018-04-25T06:45:11.898Z,86.40
2018-04-25T06:47:39.427Z,86.20
2018-04-25T06:50:08.228Z,86.20
2018-04-25T06:52:35.750Z,85.60
2018-04-25T06:55:03.298Z,85.20
2018-04-25T06:57:30.872Z,84.50
2018-04-25T06:59:58.437Z,84.50
2018-04-25T07:02:25.959Z,84.40
2018-04-25T07:04:53.515Z,84.10
2018-04-25T07:07:21.144Z,83.90
2018-04-25T07:09:48.722Z,83.50
2018-04-25T07:12:16.249Z,83.50
2018-04-25T07:14:43.812Z,83.60
2018-04-25T07:17:12.107Z,83.00
2018-04-25T07:19:39.661Z,83.10
2018-04-25T07:22:08.661Z,82.80
2018-04-25T07:24:36.205Z,82.70
2018-04-25T07:27:03.877Z,82.90
2018-04-25T07:29:31.460Z,82.30
2018-04-25T07:31:58.991Z,83.00
2018-04-25T07:34:27.341Z,82.50
2018-04-25T07:36:54.864Z,82.50
2018-04-25T07:39:22.540Z,81.90
2018-04-25T07:41:50.135Z,81.70
2018-04-25T07:44:17.675Z,81.40
2018-04-25T07:46:45.240Z,81.10
2018-04-25T07:49:12.880Z,81.30
2018-04-25T07:51:40.407Z,80.90
2018-04-25T07:54:08.645Z,80.70
2018-04-25T07:56:36.595Z,80.40
2018-04-25T07:59:04.189Z,80.00
2018-04-25T08:01:31.707Z,79.60
2018-04-25T08:03:59.252Z,79.50
2018-04-25T08:06:26.778Z,79.00
2018-04-25T08:08:54.386Z,78.80
2018-04-25T08:11:21.910Z,78.20
2018-04-25T08:14:01.287Z,77.60
2018-04-25T08:16:41.575Z,75.80
2018-04-25T08:19:21.163Z,75.80
2018-04-25T08:21:48.718Z,75.40
2018-04-25T08:24:16.282Z,74.80
2018-04-25T08:26:43.803Z,74.60
2018-04-25T08:29:11.376Z,74.80
2018-04-25T08:31:38.900Z,74.30
2018-04-25T08:34:06.563Z,74.30
2018-04-25T08:36:34.209Z,73.40
2018-04-25T08:39:01.750Z,73.40
2018-04-25T08:41:29.295Z,73.80
2018-04-25T08:43:56.835Z,74.00
2018-04-25T08:46:24.378Z,73.60
2018-04-25T08:48:51.897Z,73.50
2018-04-25T08:51:19.434Z,73.50
2018-04-25T08:53:47.723Z,73.00
2018-04-25T08:56:15.267Z,73.00
2018-04-25T08:58:42.800Z,72.60
2018-04-25T09:01:11.328Z,71.30
2018-04-25T09:03:38.855Z,70.70
2018-04-25T09:06:06.404Z,70.40
2018-04-25T09:08:33.936Z,69.60
2018-04-25T09:11:01.491Z,69.10
2018-04-25T09:13:29.010Z,68.40
2018-04-25T09:15:56.563Z,68.30
2018-04-25T09:18:24.096Z,67.60
2018-04-25T09:20:51.684Z,66.90
2018-04-25T09:23:19.191Z,67.00
2018-04-25T09:25:46.743Z,67.00
2018-04-25T09:28:14.268Z,65.90
2018-04-25T09:30:41.820Z,66.30
2018-04-25T09:33:10.344Z,66.10
2018-04-25T09:35:37.890Z,65.70
2018-04-25T09:38:06.181Z,64.90
2018-04-25T09:40:33.714Z,64.80
2018-04-25T09:43:02.176Z,63.70
2018-04-25T09:45:29.724Z,64.40
2018-04-25T09:47:57.247Z,64.70
2018-04-25T09:50:25.550Z,64.60
2018-04-25T09:52:53.097Z,64.60
2018-04-25T09:55:20.620Z,64.50
2018-04-25T09:57:48.181Z,63.70
2018-04-25T10:00:15.714Z,63.30
2018-04-25T10:02:43.263Z,62.50
2018-04-25T10:05:10.785Z,62.10
2018-04-25T10:07:38.471Z,60.90
2018-04-25T10:10:06.011Z,60.80
2018-04-25T10:12:33.565Z,59.70
2018-04-25T10:15:01.126Z,58.60
2018-04-25T10:17:28.676Z,58.80
2018-04-25T10:19:56.215Z,59.40
2018-04-25T10:22:23.918Z,58.20
2018-04-25T10:24:51.486Z,57.50
2018-04-25T10:27:19.026Z,56.80
2018-04-25T10:29:46.599Z,56.80
2018-04-25T10:32:14.146Z,57.20
2018-04-25T10:34:42.447Z,58.50
2018-04-25T10:37:10.027Z,58.50
2018-04-25T10:39:37.547Z,60.50
2018-04-25T10:42:05.092Z,61.30
2018-04-25T10:44:32.615Z,62.30
2018-04-25T10:47:00.303Z,62.50
2018-04-25T10:49:27.832Z,63.00
2018-04-25T10:51:55.378Z,62.40
2018-04-25T10:54:22.938Z,61.40
2018-04-25T10:56:50.585Z,61.60
2018-04-25T10:59:18.104Z,62.20
2018-04-25T11:01:45.703Z,63.20
2018-04-25T11:04:15.129Z,69.80
2018-04-25T11:06:42.692Z,69.80
2018-04-25T11:09:10.300Z,72.60
2018-04-25T11:11:38.641Z,87.70
2018-04-25T11:14:06.238Z,87.50
2018-04-25T11:16:33.784Z,90.60
2018-04-25T11:19:01.349Z,91.80
2018-04-25T11:21:28.897Z,92.60
2018-04-25T11:23:56.747Z,92.90
2018-04-25T11:26:24.288Z,93.90
2018-04-25T11:28:51.879Z,93.10
2018-04-25T11:31:20.189Z,94.30
2018-04-25T11:33:47.744Z,94.30
2018-04-25T11:36:15.261Z,94.10
2018-04-25T11:38:42.799Z,93.10
2018-04-25T11:41:10.321Z,92.90
2018-04-25T11:43:38.739Z,92.10
2018-04-25T11:46:06.305Z,92.10
2018-04-25T11:48:33.862Z,92.00
2018-04-25T11:51:01.384Z,91.80
2018-04-25T11:53:28.979Z,90.80
2018-04-25T11:55:56.679Z,90.80
2018-04-25T11:58:24.218Z,90.30
2018-04-25T12:00:51.856Z,88.70
2018-04-25T12:03:19.434Z,90.20
2018-04-25T12:05:46.950Z,89.40
2018-04-25T12:08:15.243Z,89.30
2018-04-25T12:10:42.885Z,88.50
2018-04-25T12:13:10.516Z,88.40
2018-04-25T12:15:38.734Z,86.60
2018-04-25T12:18:06.329Z,86.70
2018-04-25T12:20:33.840Z,84.40
2018-04-25T12:23:01.403Z,83.00
2018-04-25T12:25:28.927Z,83.50
2018-04-25T12:27:56.476Z,82.00
2018-04-25T12:30:24.171Z,81.40
2018-04-25T12:32:51.727Z,79.50
2018-04-25T12:35:20.020Z,80.70
2018-04-25T12:37:47.561Z,80.70
2018-04-25T12:40:15.437Z,82.30
2018-04-25T12:42:43.051Z,80.70
2018-04-25T12:45:10.734Z,79.00
2018-04-25T12:47:38.374Z,77.90
2018-04-25T12:50:05.998Z,77.60
2018-04-25T12:52:33.543Z,77.30
2018-04-25T12:55:01.209Z,75.70
2018-04-25T12:57:28.731Z,74.50
2018-04-25T12:59:56.319Z,74.60
2018-04-25T13:02:23.831Z,73.70
2018-04-25T13:04:51.458Z,72.20
2018-04-25T13:07:19.017Z,72.20
2018-04-25T13:09:46.632Z,72.30
2018-04-25T13:12:14.107Z,71.50
2018-04-25T13:14:41.654Z,71.20
2018-04-25T13:17:09.167Z,71.30
2018-04-25T13:19:37.471Z,67.50
2018-04-25T13:22:05.006Z,67.50
2018-04-25T13:24:32.566Z,66.40
2018-04-25T13:27:00.173Z,64.60
2018-04-25T13:29:27.722Z,64.20
2018-04-25T13:31:55.250Z,63.40
2018-04-25T13:34:23.556Z,61.60
2018-04-25T13:36:51.079Z,61.60
2018-04-25T13:39:18.621Z,61.30
2018-04-25T13:41:46.135Z,59.80
2018-04-25T13:44:13.676Z,60.00
2018-04-25T13:46:42.041Z,58.20
2018-04-25T13:49:09.569Z,58.10
2018-04-25T13:51:37.136Z,58.70
2018-04-25T13:54:05.547Z,58.00
2018-04-25T13:56:33.077Z,57.90
2018-04-25T13:59:00.626Z,57.50
2018-04-25T14:01:28.142Z,55.80
2018-04-25T14:03:56.458Z,56.00
2018-04-25T14:06:23.970Z,55.80
2018-04-25T14:08:51.535Z,55.80
2018-04-25T14:11:19.067Z,54.80
2018-04-25T14:13:46.609Z,55.10
2018-04-25T14:16:14.122Z,55.50
2018-04-25T14:18:42.427Z,52.80
2018-04-25T14:21:09.974Z,52.80
2018-04-25T14:23:37.514Z,54.80
2018-04-25T14:26:05.117Z,55.80
2018-04-25T14:28:33.745Z,57.60
2018-04-25T14:31:01.288Z,57.60
2018-04-25T14:33:28.839Z,58.40
2018-04-25T14:35:56.383Z,58.20
2018-04-25T14:38:24.679Z,58.40
2018-04-25T14:40:52.989Z,58.00
2018-04-25T14:43:20.540Z,58.00
2018-04-25T14:45:48.081Z,57.30
2018-04-25T14:48:15.603Z,58.30
2018-04-25T14:50:43.178Z,57.30
2018-04-25T14:53:10.874Z,57.90
2018-04-25T14:55:38.439Z,57.50
2018-04-25T14:58:06.004Z,58.00
2018-04-25T15:00:33.547Z,57.60
2018-04-25T15:03:01.065Z,58.40
2018-04-25T15:05:28.628Z,58.10
2018-04-25T15:07:56.140Z,57.50
2018-04-25T15:10:24.451Z,56.90
2018-04-25T15:12:51.992Z,57.40
2018-04-25T15:15:19.557Z,57.20
2018-04-25T15:17:47.082Z,57.30
2018-04-25T15:20:14.751Z,56.20
2018-04-25T15:22:42.269Z,55.80
2018-04-25T15:25:09.914Z,55.30
2018-04-25T15:27:37.454Z,56.20
2018-04-25T15:30:05.004Z,56.50
2018-04-25T15:32:32.526Z,56.50
2018-04-25T15:35:00.090Z,55.90
2018-04-25T15:37:27.644Z,55.10
2018-04-25T15:39:55.188Z,53.10
2018-04-25T15:42:22.797Z,52.10
2018-04-25T15:44:50.334Z,51.90
2018-04-25T15:47:17.854Z,52.10
2018-04-25T15:49:46.173Z,51.20
2018-04-25T15:52:13.677Z,51.20
2018-04-25T15:54:41.991Z,54.00
2018-04-25T15:57:09.514Z,54.00
2018-04-25T15:59:37.074Z,54.20
2018-04-25T16:02:04.620Z,54.60
2018-04-25T16:04:32.151Z,55.00
2018-04-25T16:06:59.687Z,55.60
2018-04-25T16:09:27.239Z,55.50
2018-04-25T16:11:55.849Z,55.90
2018-04-25T16:14:23.378Z,56.70
2018-04-25T16:16:50.918Z,57.70
2018-04-25T16:19:18.488Z,57.30
2018-04-25T16:21:46.026Z,57.00
2018-04-25T16:24:13.543Z,54.30
2018-04-25T16:26:41.083Z,53.10
2018-04-25T16:29:08.624Z,54.50
2018-04-25T16:31:36.182Z,54.00
2018-04-25T16:34:04.493Z,47.30
2018-04-25T16:36:32.038Z,46.70
2018-04-25T16:38:59.563Z,45.90
2018-04-25T16:41:27.868Z,49.60
2018-04-25T16:43:55.399Z,49.20
2018-04-25T16:46:22.946Z,53.60
2018-04-25T16:48:50.549Z,56.10
2018-04-25T16:51:18.141Z,57.30
2018-04-25T16:53:45.913Z,58.50
2018-04-25T16:56:13.465Z,59.50
2018-04-25T16:58:41.102Z,60.40
2018-04-25T17:01:08.664Z,61.40
2018-04-25T17:03:36.995Z,62.50
2018-04-25T17:06:04.531Z,62.40
2018-04-25T17:08:32.070Z,62.40
2018-04-25T17:10:59.856Z,61.10
2018-04-25T17:13:27.403Z,56.90
2018-04-25T17:15:55.152Z,53.40
2018-04-25T17:18:22.887Z,50.30
2018-04-25T17:20:50.461Z,49.20
2018-04-25T17:23:17.987Z,48.50
2018-04-25T17:25:45.526Z,48.40
2018-04-25T17:28:13.177Z,48.70
2018-04-25T17:30:40.737Z,48.70
2018-04-25T17:33:08.462Z,48.20
2018-04-25T17:35:36.048Z,49.90
2018-04-25T17:38:04.409Z,53.40
2018-04-25T17:40:31.940Z,52.80
2018-04-25T17:43:00.146Z,55.70
2018-04-25T17:45:27.662Z,58.10
2018-04-25T17:47:56.012Z,62.10
2018-04-25T17:50:23.526Z,62.10
2018-04-25T17:52:51.085Z,61.90
2018-04-25T17:55:18.655Z,61.80
2018-04-25T17:57:46.248Z,62.70
2018-04-25T18:00:13.774Z,64.30
2018-04-25T18:02:41.316Z,65.60
2018-04-25T18:05:09.575Z,66.60
2018-04-25T18:07:37.123Z,66.30
2018-04-25T18:10:04.698Z,65.10
2018-04-25T18:12:32.234Z,65.40
2018-04-25T18:14:59.750Z,66.20
2018-04-25T18:17:27.318Z,67.00
2018-04-25T18:19:54.830Z,68.00
2018-04-25T18:22:23.547Z,68.60
2018-04-25T18:24:51.018Z,69.10
2018-04-25T18:27:19.333Z,70.50
2018-04-25T18:29:46.864Z,70.60
2018-04-25T18:32:14.419Z,71.20
2018-04-25T18:34:41.938Z,71.90
2018-04-25T18:37:10.247Z,73.00
2018-04-25T18:39:37.778Z,72.90
2018-04-25T18:42:05.322Z,73.70
2018-04-25T18:44:32.877Z,74.40
2018-04-25T18:47:00.442Z,74.80
2018-04-25T18:49:27.993Z,75.70
2018-04-25T18:51:55.539Z,75.90
2018-04-25T18:54:23.778Z,76.40
2018-04-25T18:56:51.379Z,76.80
2018-04-25T18:59:19.069Z,77.10
2018-04-25T19:01:46.817Z,77.50
2018-04-25T19:04:14.401Z,77.80
2018-04-25T19:06:41.992Z,78.00
2018-04-25T19:09:09.814Z,78.10
2018-04-25T19:11:38.126Z,78.50
2018-04-25T19:14:05.678Z,78.50
2018-04-25T19:16:33.207Z,78.90
2018-04-25T19:19:00.784Z,79.00
2018-04-25T19:21:29.088Z,79.60
2018-04-25T19:23:56.864Z,79.60
2018-04-25T19:26:24.642Z,79.70
2018-04-25T19:28:52.394Z,79.70
2018-04-25T19:31:19.922Z,79.50
2018-04-25T19:33:47.464Z,80.10
2018-04-25T19:36:14.978Z,80.30
2018-04-25T19:38:42.506Z,80.50
2018-04-25T19:41:10.097Z,80.70
2018-04-25T19:43:37.643Z,80.80
2018-04-25T19:46:05.172Z,80.90
2018-04-25T19:48:32.712Z,80.70
2018-04-25T19:51:00.342Z,80.90
2018-04-25T19:53:27.916Z,81.50
2018-04-25T19:55:55.488Z,81.40
2018-04-25T19:58:25.555Z,81.90
2018-04-25T20:00:53.210Z,81.80
2018-04-25T20:03:20.802Z,81.60
2018-04-25T20:05:49.094Z,82.00
2018-04-25T20:08:16.643Z,81.90
2018-04-25T20:10:44.340Z,81.60
2018-04-25T20:13:12.657Z,80.70
2018-04-25T20:15:40.179Z,80.70
2018-04-25T20:18:07.810Z,80.70
2018-04-25T20:20:36.162Z,80.70
2018-04-25T20:23:04.637Z,80.70
2018-04-25T20:25:32.938Z,81.00
2018-04-25T20:28:00.497Z,80.80
2018-04-25T20:30:28.010Z,81.40
2018-04-25T20:32:55.623Z,81.90
2018-04-25T20:35:23.919Z,81.80
2018-04-25T20:37:51.476Z,81.80
2018-04-25T20:40:19.015Z,81.90
2018-04-25T20:42:46.563Z,82.20
2018-04-25T20:45:14.082Z,82.30
2018-04-25T20:47:41.626Z,82.20
2018-04-25T20:50:09.152Z,82.40
2018-04-25T20:52:36.857Z,83.50
2018-04-25T20:55:04.376Z,83.50
2018-04-25T20:57:31.982Z,83.80
2018-04-25T20:59:59.553Z,83.60
2018-04-25T21:02:27.203Z,83.80
2018-04-25T21:04:54.698Z,83.90
2018-04-25T21:07:22.220Z,84.00
2018-04-25T21:09:50.075Z,83.80
2018-04-25T21:12:17.724Z,83.60
2018-04-25T21:14:45.285Z,83.60
2018-04-25T21:17:13.985Z,83.80
2018-04-25T21:19:41.553Z,83.60
2018-04-25T21:22:09.123Z,83.40
2018-04-25T21:24:36.664Z,82.20
2018-04-25T21:27:04.183Z,82.10
2018-04-25T21:29:31.760Z,81.90
2018-04-25T21:31:59.284Z,82.20
2018-04-25T21:34:27.394Z,82.10
2018-04-25T21:36:54.915Z,82.30
2018-04-25T21:39:22.454Z,82.50
2018-04-25T21:41:49.972Z,83.90
2018-04-25T21:44:17.499Z,83.90
2018-04-25T21:46:45.767Z,84.00
2018-04-25T21:49:13.301Z,84.00
2018-04-25T21:51:41.607Z,83.90
2018-04-25T21:54:09.359Z,83.90
2018-04-25T21:56:36.884Z,83.70
2018-04-25T21:59:04.436Z,84.00
2018-04-25T22:01:31.953Z,84.20
2018-04-25T22:03:59.517Z,84.20
2018-04-25T22:06:27.941Z,84.10
2018-04-25T22:08:56.363Z,84.20
2018-04-25T22:11:23.899Z,84.20
2018-04-25T22:13:51.441Z,84.30
2018-04-25T22:16:18.983Z,84.60
2018-04-25T22:18:46.519Z,84.90
2018-04-25T22:21:14.081Z,85.70
2018-04-25T22:23:41.619Z,85.30
2018-04-25T22:26:09.173Z,85.40
2018-04-25T22:28:36.715Z,85.20
2018-04-25T22:31:04.251Z,85.30
2018-04-25T22:33:31.847Z,85.40
2018-04-25T22:35:59.369Z,85.50
2018-04-25T22:38:26.912Z,86.00
2018-04-25T22:40:54.420Z,86.20
2018-04-25T22:43:21.976Z,86.20
2018-04-25T22:45:49.631Z,85.90
2018-04-25T22:48:17.154Z,85.50
2018-04-25T22:50:44.690Z,85.40
2018-04-25T22:53:12.208Z,85.40
2018-04-25T22:55:40.507Z,85.60
2018-04-25T22:58:08.019Z,85.60
2018-04-25T23:00:36.328Z,85.70
2018-04-25T23:03:04.828Z,85.60
2018-04-25T23:05:32.422Z,85.70
2018-04-25T23:07:59.991Z,85.80
2018-04-25T23:10:27.528Z,85.60
2018-04-25T23:12:55.041Z,85.50
2018-04-25T23:15:22.574Z,85.90
2018-04-25T23:17:50.108Z,85.10
2018-04-25T23:20:18.410Z,84.60
2018-04-25T23:22:45.929Z,84.60
2018-04-25T23:25:14.272Z,83.60
2018-04-25T23:27:42.550Z,84.10
2018-04-25T23:30:10.978Z,83.40
2018-04-25T23:32:38.532Z,83.40
2018-04-25T23:35:07.332Z,84.70
2018-04-25T23:37:35.006Z,84.70
2018-04-25T23:40:02.549Z,84.90
2018-04-25T23:42:30.881Z,83.50
2018-04-25T23:44:59.183Z,83.30
2018-04-25T23:47:26.736Z,83.30
2018-04-25T23:49:54.274Z,84.60
2018-04-25T23:52:21.786Z,84.90
2018-04-25T23:54:50.103Z,84.80
2018-04-25T23:57:17.627Z,84.80
2018-04-25T23:59:45.162Z,85.00
